sensor_id;sensor_type;location;lat;lon;timestamp;P1;durP1;ratioP1;P2;durP2;ratioP2
52946;SDS011;68773;40.400;17.260;2023-06-24T00:02:11;13.30;;;8.05;;
52946;SDS011;68773;40.400;17.260;2023-06-24T00:04:36;18.85;;;8.77;;
52946;SDS011;68773;40.400;17.260;2023-06-24T00:07:02;16.30;;;8.45;;
52946;SDS011;68773;40.400;17.260;2023-06-24T00:09:28;13.75;;;8.98;;
52946;SDS011;68773;40.400;17.260;2023-06-24T00:11:55;17.40;;;8.30;;
52946;SDS011;68773;40.400;17.260;2023-06-24T00:14:22;13.05;;;7.85;;
52946;SDS011;68773;40.400;17.260;2023-06-24T00:16:52;13.82;;;8.23;;
52946;SDS011;68773;40.400;17.260;2023-06-24T00:19:23;15.30;;;8.60;;
52946;SDS011;68773;40.400;17.260;2023-06-24T00:21:50;11.77;;;7.53;;
52946;SDS011;68773;40.400;17.260;2023-06-24T00:24:16;14.75;;;8.05;;
52946;SDS011;68773;40.400;17.260;2023-06-24T00:26:44;15.18;;;7.80;;
52946;SDS011;68773;40.400;17.260;2023-06-24T00:29:13;12.48;;;7.10;;
52946;SDS011;68773;40.400;17.260;2023-06-24T00:31:40;13.98;;;8.00;;
52946;SDS011;68773;40.400;17.260;2023-06-24T00:34:06;13.98;;;7.22;;
52946;SDS011;68773;40.400;17.260;2023-06-24T00:36:32;18.30;;;7.47;;
52946;SDS011;68773;40.400;17.260;2023-06-24T00:39:00;12.18;;;7.30;;
52946;SDS011;68773;40.400;17.260;2023-06-24T00:41:30;11.55;;;7.43;;
52946;SDS011;68773;40.400;17.260;2023-06-24T00:43:56;15.65;;;7.35;;
52946;SDS011;68773;40.400;17.260;2023-06-24T00:46:26;15.82;;;7.88;;
52946;SDS011;68773;40.400;17.260;2023-06-24T00:48:54;15.00;;;9.00;;
52946;SDS011;68773;40.400;17.260;2023-06-24T00:51:20;15.15;;;8.10;;
52946;SDS011;68773;40.400;17.260;2023-06-24T00:53:51;13.70;;;8.73;;
52946;SDS011;68773;40.400;17.260;2023-06-24T00:56:20;15.18;;;8.60;;
52946;SDS011;68773;40.400;17.260;2023-06-24T00:58:48;17.77;;;8.43;;
52946;SDS011;68773;40.400;17.260;2023-06-24T01:01:15;20.25;;;8.95;;
52946;SDS011;68773;40.400;17.260;2023-06-24T01:03:41;18.77;;;8.52;;
52946;SDS011;68773;40.400;17.260;2023-06-24T01:06:08;17.45;;;8.45;;
52946;SDS011;68773;40.400;17.260;2023-06-24T01:08:34;13.45;;;8.38;;
52946;SDS011;68773;40.400;17.260;2023-06-24T01:11:00;18.52;;;9.15;;
52946;SDS011;68773;40.400;17.260;2023-06-24T01:13:26;14.10;;;8.82;;
52946;SDS011;68773;40.400;17.260;2023-06-24T01:15:51;16.77;;;9.48;;
52946;SDS011;68773;40.400;17.260;2023-06-24T01:18:21;15.30;;;9.32;;
52946;SDS011;68773;40.400;17.260;2023-06-24T01:20:52;20.60;;;9.35;;
52946;SDS011;68773;40.400;17.260;2023-06-24T01:34:40;15.48;;;8.48;;
52946;SDS011;68773;40.400;17.260;2023-06-24T01:39:38;21.05;;;8.85;;
52946;SDS011;68773;40.400;17.260;2023-06-24T01:42:19;18.63;;;8.90;;
52946;SDS011;68773;40.400;17.260;2023-06-24T01:44:47;18.88;;;8.73;;
52946;SDS011;68773;40.400;17.260;2023-06-24T01:47:15;16.70;;;8.65;;
52946;SDS011;68773;40.400;17.260;2023-06-24T01:49:48;18.52;;;8.95;;
52946;SDS011;68773;40.400;17.260;2023-06-24T01:52:17;13.55;;;7.80;;
52946;SDS011;68773;40.400;17.260;2023-06-24T01:54:45;14.57;;;7.57;;
52946;SDS011;68773;40.400;17.260;2023-06-24T01:57:14;14.40;;;8.05;;
52946;SDS011;68773;40.400;17.260;2023-06-24T01:59:42;14.43;;;7.43;;
52946;SDS011;68773;40.400;17.260;2023-06-24T02:02:10;14.50;;;7.80;;
52946;SDS011;68773;40.400;17.260;2023-06-24T02:04:38;13.80;;;8.20;;
52946;SDS011;68773;40.400;17.260;2023-06-24T02:07:05;12.68;;;7.25;;
52946;SDS011;68773;40.400;17.260;2023-06-24T02:09:33;15.23;;;7.95;;
52946;SDS011;68773;40.400;17.260;2023-06-24T02:12:00;15.20;;;8.00;;
52946;SDS011;68773;40.400;17.260;2023-06-24T02:14:28;17.77;;;7.78;;
52946;SDS011;68773;40.400;17.260;2023-06-24T02:16:55;14.70;;;7.72;;
52946;SDS011;68773;40.400;17.260;2023-06-24T02:19:42;17.05;;;8.15;;
52946;SDS011;68773;40.400;17.260;2023-06-24T02:22:09;14.77;;;7.40;;
52946;SDS011;68773;40.400;17.260;2023-06-24T02:24:36;15.82;;;7.20;;
52946;SDS011;68773;40.400;17.260;2023-06-24T02:27:03;17.55;;;7.47;;
52946;SDS011;68773;40.400;17.260;2023-06-24T02:29:31;18.83;;;7.55;;
52946;SDS011;68773;40.400;17.260;2023-06-24T02:31:59;14.32;;;7.35;;
52946;SDS011;68773;40.400;17.260;2023-06-24T02:34:25;15.40;;;7.45;;
52946;SDS011;68773;40.400;17.260;2023-06-24T02:36:50;16.77;;;7.78;;
52946;SDS011;68773;40.400;17.260;2023-06-24T02:39:16;15.75;;;7.53;;
52946;SDS011;68773;40.400;17.260;2023-06-24T02:41:42;14.93;;;7.43;;
52946;SDS011;68773;40.400;17.260;2023-06-24T02:44:09;18.65;;;8.43;;
52946;SDS011;68773;40.400;17.260;2023-06-24T02:46:35;14.15;;;7.38;;
52946;SDS011;68773;40.400;17.260;2023-06-24T02:49:02;15.40;;;7.88;;
52946;SDS011;68773;40.400;17.260;2023-06-24T02:51:28;11.57;;;7.20;;
52946;SDS011;68773;40.400;17.260;2023-06-24T02:53:55;15.25;;;7.60;;
52946;SDS011;68773;40.400;17.260;2023-06-24T02:56:23;14.43;;;7.82;;
52946;SDS011;68773;40.400;17.260;2023-06-24T02:58:51;14.25;;;7.93;;
52946;SDS011;68773;40.400;17.260;2023-06-24T03:01:18;14.57;;;7.38;;
52946;SDS011;68773;40.400;17.260;2023-06-24T03:03:50;12.20;;;7.80;;
52946;SDS011;68773;40.400;17.260;2023-06-24T03:06:18;12.30;;;8.15;;
52946;SDS011;68773;40.400;17.260;2023-06-24T03:08:45;17.30;;;8.27;;
52946;SDS011;68773;40.400;17.260;2023-06-24T03:11:12;14.85;;;8.27;;
52946;SDS011;68773;40.400;17.260;2023-06-24T03:13:42;16.58;;;7.95;;
52946;SDS011;68773;40.400;17.260;2023-06-24T03:16:08;16.40;;;8.27;;
52946;SDS011;68773;40.400;17.260;2023-06-24T03:18:41;17.35;;;8.38;;
52946;SDS011;68773;40.400;17.260;2023-06-24T03:21:07;16.40;;;8.43;;
52946;SDS011;68773;40.400;17.260;2023-06-24T03:23:34;19.90;;;9.82;;
52946;SDS011;68773;40.400;17.260;2023-06-24T03:26:00;15.63;;;8.57;;
52946;SDS011;68773;40.400;17.260;2023-06-24T03:28:27;17.10;;;9.05;;
52946;SDS011;68773;40.400;17.260;2023-06-24T03:30:57;15.18;;;8.32;;
52946;SDS011;68773;40.400;17.260;2023-06-24T03:33:23;20.67;;;8.32;;
52946;SDS011;68773;40.400;17.260;2023-06-24T03:35:49;13.95;;;8.00;;
52946;SDS011;68773;40.400;17.260;2023-06-24T03:38:16;14.15;;;7.90;;
52946;SDS011;68773;40.400;17.260;2023-06-24T03:40:42;17.83;;;8.02;;
52946;SDS011;68773;40.400;17.260;2023-06-24T03:43:09;13.70;;;7.97;;
52946;SDS011;68773;40.400;17.260;2023-06-24T03:45:35;15.73;;;8.70;;
52946;SDS011;68773;40.400;17.260;2023-06-24T03:48:00;16.45;;;8.65;;
52946;SDS011;68773;40.400;17.260;2023-06-24T03:50:26;18.45;;;9.32;;
52946;SDS011;68773;40.400;17.260;2023-06-24T03:52:52;17.42;;;8.10;;
52946;SDS011;68773;40.400;17.260;2023-06-24T03:55:18;14.90;;;8.15;;
52946;SDS011;68773;40.400;17.260;2023-06-24T03:57:43;18.52;;;7.80;;
52946;SDS011;68773;40.400;17.260;2023-06-24T04:16:42;13.85;;;8.45;;
52946;SDS011;68773;40.400;17.260;2023-06-24T04:19:07;19.23;;;8.60;;
52946;SDS011;68773;40.400;17.260;2023-06-24T04:21:33;17.77;;;8.27;;
52946;SDS011;68773;40.400;17.260;2023-06-24T04:23:59;18.65;;;9.10;;
52946;SDS011;68773;40.400;17.260;2023-06-24T04:26:25;18.08;;;9.55;;
52946;SDS011;68773;40.400;17.260;2023-06-24T04:28:50;15.55;;;8.73;;
52946;SDS011;68773;40.400;17.260;2023-06-24T04:31:16;18.65;;;8.80;;
52946;SDS011;68773;40.400;17.260;2023-06-24T04:33:42;21.05;;;8.60;;
52946;SDS011;68773;40.400;17.260;2023-06-24T04:36:08;16.73;;;8.40;;
52946;SDS011;68773;40.400;17.260;2023-06-24T04:38:34;15.52;;;8.20;;
52946;SDS011;68773;40.400;17.260;2023-06-24T04:40:59;18.70;;;8.98;;
52946;SDS011;68773;40.400;17.260;2023-06-24T04:43:25;14.05;;;8.32;;
52946;SDS011;68773;40.400;17.260;2023-06-24T04:45:53;16.55;;;8.07;;
52946;SDS011;68773;40.400;17.260;2023-06-24T04:48:25;14.15;;;8.15;;
52946;SDS011;68773;40.400;17.260;2023-06-24T04:50:51;13.15;;;7.28;;
52946;SDS011;68773;40.400;17.260;2023-06-24T04:53:18;20.63;;;8.07;;
52946;SDS011;68773;40.400;17.260;2023-06-24T04:55:44;21.83;;;8.23;;
52946;SDS011;68773;40.400;17.260;2023-06-24T04:58:10;14.98;;;7.28;;
52946;SDS011;68773;40.400;17.260;2023-06-24T05:00:35;12.63;;;6.88;;
52946;SDS011;68773;40.400;17.260;2023-06-24T05:03:01;14.45;;;7.63;;
52946;SDS011;68773;40.400;17.260;2023-06-24T05:05:27;14.82;;;8.50;;
52946;SDS011;68773;40.400;17.260;2023-06-24T05:07:52;23.40;;;9.20;;
52946;SDS011;68773;40.400;17.260;2023-06-24T05:10:19;18.65;;;7.80;;
52946;SDS011;68773;40.400;17.260;2023-06-24T05:12:45;18.73;;;9.23;;
52946;SDS011;68773;40.400;17.260;2023-06-24T05:15:11;24.73;;;9.40;;
52946;SDS011;68773;40.400;17.260;2023-06-24T05:17:36;20.90;;;9.25;;
52946;SDS011;68773;40.400;17.260;2023-06-24T05:20:02;16.77;;;9.63;;
52946;SDS011;68773;40.400;17.260;2023-06-24T05:22:28;20.38;;;9.68;;
52946;SDS011;68773;40.400;17.260;2023-06-24T05:24:54;22.50;;;10.70;;
52946;SDS011;68773;40.400;17.260;2023-06-24T05:27:39;25.02;;;9.52;;
52946;SDS011;68773;40.400;17.260;2023-06-24T05:30:05;20.52;;;9.75;;
52946;SDS011;68773;40.400;17.260;2023-06-24T05:32:31;22.27;;;9.57;;
52946;SDS011;68773;40.400;17.260;2023-06-24T05:34:57;24.75;;;11.18;;
52946;SDS011;68773;40.400;17.260;2023-06-24T05:37:23;20.90;;;9.63;;
52946;SDS011;68773;40.400;17.260;2023-06-24T05:39:48;16.55;;;9.27;;
52946;SDS011;68773;40.400;17.260;2023-06-24T05:42:14;17.88;;;8.30;;
52946;SDS011;68773;40.400;17.260;2023-06-24T05:44:40;18.88;;;8.70;;
52946;SDS011;68773;40.400;17.260;2023-06-24T05:47:05;18.42;;;7.72;;
52946;SDS011;68773;40.400;17.260;2023-06-24T05:49:31;19.55;;;9.05;;
52946;SDS011;68773;40.400;17.260;2023-06-24T05:51:57;19.15;;;8.02;;
52946;SDS011;68773;40.400;17.260;2023-06-24T05:54:23;19.50;;;7.88;;
52946;SDS011;68773;40.400;17.260;2023-06-24T05:56:49;14.43;;;7.03;;
52946;SDS011;68773;40.400;17.260;2023-06-24T05:59:15;21.17;;;7.97;;
52946;SDS011;68773;40.400;17.260;2023-06-24T06:01:40;13.48;;;7.13;;
52946;SDS011;68773;40.400;17.260;2023-06-24T06:04:06;15.52;;;8.20;;
52946;SDS011;68773;40.400;17.260;2023-06-24T06:06:32;15.40;;;7.47;;
52946;SDS011;68773;40.400;17.260;2023-06-24T06:08:58;14.35;;;8.13;;
52946;SDS011;68773;40.400;17.260;2023-06-24T06:11:24;17.25;;;7.90;;
52946;SDS011;68773;40.400;17.260;2023-06-24T06:13:50;18.67;;;7.72;;
52946;SDS011;68773;40.400;17.260;2023-06-24T06:16:17;18.38;;;7.20;;
52946;SDS011;68773;40.400;17.260;2023-06-24T06:18:43;17.85;;;7.30;;
52946;SDS011;68773;40.400;17.260;2023-06-24T06:21:08;20.60;;;7.93;;
52946;SDS011;68773;40.400;17.260;2023-06-24T06:23:34;17.27;;;6.93;;
52946;SDS011;68773;40.400;17.260;2023-06-24T06:26:00;17.20;;;7.60;;
52946;SDS011;68773;40.400;17.260;2023-06-24T06:28:26;12.05;;;7.38;;
52946;SDS011;68773;40.400;17.260;2023-06-24T06:30:51;21.73;;;7.75;;
52946;SDS011;68773;40.400;17.260;2023-06-24T06:33:17;17.83;;;7.78;;
52946;SDS011;68773;40.400;17.260;2023-06-24T06:35:43;14.35;;;6.95;;
52946;SDS011;68773;40.400;17.260;2023-06-24T06:38:08;15.27;;;6.93;;
52946;SDS011;68773;40.400;17.260;2023-06-24T06:40:34;19.60;;;8.52;;
52946;SDS011;68773;40.400;17.260;2023-06-24T06:43:00;18.65;;;7.65;;
52946;SDS011;68773;40.400;17.260;2023-06-24T06:45:26;13.75;;;7.55;;
52946;SDS011;68773;40.400;17.260;2023-06-24T06:47:52;17.17;;;8.38;;
52946;SDS011;68773;40.400;17.260;2023-06-24T06:50:17;15.27;;;8.32;;
52946;SDS011;68773;40.400;17.260;2023-06-24T06:52:43;15.02;;;8.48;;
52946;SDS011;68773;40.400;17.260;2023-06-24T06:55:09;12.68;;;8.32;;
52946;SDS011;68773;40.400;17.260;2023-06-24T06:57:35;17.27;;;8.90;;
52946;SDS011;68773;40.400;17.260;2023-06-24T07:00:01;16.92;;;9.13;;
52946;SDS011;68773;40.400;17.260;2023-06-24T07:02:27;16.95;;;9.60;;
52946;SDS011;68773;40.400;17.260;2023-06-24T07:04:53;13.98;;;9.05;;
52946;SDS011;68773;40.400;17.260;2023-06-24T07:07:18;21.20;;;10.57;;
52946;SDS011;68773;40.400;17.260;2023-06-24T07:09:44;18.17;;;10.20;;
52946;SDS011;68773;40.400;17.260;2023-06-24T07:15:23;20.48;;;10.27;;
52946;SDS011;68773;40.400;17.260;2023-06-24T07:17:52;21.02;;;10.35;;
52946;SDS011;68773;40.400;17.260;2023-06-24T07:20:19;16.23;;;10.40;;
52946;SDS011;68773;40.400;17.260;2023-06-24T07:22:45;17.90;;;10.00;;
52946;SDS011;68773;40.400;17.260;2023-06-24T07:25:11;18.77;;;9.73;;
52946;SDS011;68773;40.400;17.260;2023-06-24T07:27:37;16.98;;;9.70;;
52946;SDS011;68773;40.400;17.260;2023-06-24T07:30:03;18.65;;;10.35;;
52946;SDS011;68773;40.400;17.260;2023-06-24T07:32:30;18.05;;;10.13;;
52946;SDS011;68773;40.400;17.260;2023-06-24T07:37:49;18.30;;;10.55;;
52946;SDS011;68773;40.400;17.260;2023-06-24T07:40:15;23.25;;;10.45;;
52946;SDS011;68773;40.400;17.260;2023-06-24T07:42:41;19.83;;;9.77;;
52946;SDS011;68773;40.400;17.260;2023-06-24T07:45:07;19.17;;;10.65;;
52946;SDS011;68773;40.400;17.260;2023-06-24T07:47:33;18.73;;;9.77;;
52946;SDS011;68773;40.400;17.260;2023-06-24T07:49:58;20.38;;;9.50;;
52946;SDS011;68773;40.400;17.260;2023-06-24T07:52:24;17.95;;;9.18;;
52946;SDS011;68773;40.400;17.260;2023-06-24T07:54:50;15.95;;;10.18;;
52946;SDS011;68773;40.400;17.260;2023-06-24T07:57:16;15.32;;;10.25;;
52946;SDS011;68773;40.400;17.260;2023-06-24T07:59:42;23.20;;;9.98;;
52946;SDS011;68773;40.400;17.260;2023-06-24T08:02:08;18.83;;;10.13;;
52946;SDS011;68773;40.400;17.260;2023-06-24T08:04:34;19.73;;;9.68;;
52946;SDS011;68773;40.400;17.260;2023-06-24T08:06:59;21.95;;;9.20;;
52946;SDS011;68773;40.400;17.260;2023-06-24T08:09:25;18.98;;;8.35;;
52946;SDS011;68773;40.400;17.260;2023-06-24T08:11:51;17.60;;;8.70;;
52946;SDS011;68773;40.400;17.260;2023-06-24T08:14:17;21.55;;;8.30;;
52946;SDS011;68773;40.400;17.260;2023-06-24T08:16:42;16.20;;;8.93;;
52946;SDS011;68773;40.400;17.260;2023-06-24T08:19:08;19.83;;;8.93;;
52946;SDS011;68773;40.400;17.260;2023-06-24T08:21:34;21.27;;;8.10;;
52946;SDS011;68773;40.400;17.260;2023-06-24T08:23:59;18.23;;;7.85;;
52946;SDS011;68773;40.400;17.260;2023-06-24T08:26:25;17.80;;;8.20;;
52946;SDS011;68773;40.400;17.260;2023-06-24T08:28:51;17.30;;;8.05;;
52946;SDS011;68773;40.400;17.260;2023-06-24T08:31:16;22.60;;;8.32;;
52946;SDS011;68773;40.400;17.260;2023-06-24T08:33:45;16.55;;;8.93;;
52946;SDS011;68773;40.400;17.260;2023-06-24T08:36:11;18.75;;;8.65;;
52946;SDS011;68773;40.400;17.260;2023-06-24T08:38:36;24.38;;;8.05;;
52946;SDS011;68773;40.400;17.260;2023-06-24T08:41:02;13.95;;;8.07;;
52946;SDS011;68773;40.400;17.260;2023-06-24T08:43:28;21.27;;;7.75;;
52946;SDS011;68773;40.400;17.260;2023-06-24T08:45:53;14.52;;;7.95;;
52946;SDS011;68773;40.400;17.260;2023-06-24T08:48:20;15.90;;;8.15;;
52946;SDS011;68773;40.400;17.260;2023-06-24T08:50:48;15.90;;;7.53;;
52946;SDS011;68773;40.400;17.260;2023-06-24T08:53:18;18.60;;;8.38;;
52946;SDS011;68773;40.400;17.260;2023-06-24T08:55:45;15.02;;;8.05;;
52946;SDS011;68773;40.400;17.260;2023-06-24T08:58:12;13.77;;;7.25;;
52946;SDS011;68773;40.400;17.260;2023-06-24T09:00:38;15.02;;;7.60;;
52946;SDS011;68773;40.400;17.260;2023-06-24T09:03:04;22.00;;;8.07;;
52946;SDS011;68773;40.400;17.260;2023-06-24T09:05:30;14.73;;;7.50;;
52946;SDS011;68773;40.400;17.260;2023-06-24T09:07:56;15.23;;;7.75;;
52946;SDS011;68773;40.400;17.260;2023-06-24T09:10:28;13.10;;;7.38;;
52946;SDS011;68773;40.400;17.260;2023-06-24T09:13:02;20.50;;;7.45;;
52946;SDS011;68773;40.400;17.260;2023-06-24T09:15:30;20.65;;;7.90;;
52946;SDS011;68773;40.400;17.260;2023-06-24T09:17:59;15.15;;;7.18;;
52946;SDS011;68773;40.400;17.260;2023-06-24T09:20:29;14.68;;;7.07;;
52946;SDS011;68773;40.400;17.260;2023-06-24T09:22:59;19.55;;;6.68;;
52946;SDS011;68773;40.400;17.260;2023-06-24T09:25:29;19.75;;;7.00;;
52946;SDS011;68773;40.400;17.260;2023-06-24T09:27:58;17.50;;;7.82;;
52946;SDS011;68773;40.400;17.260;2023-06-24T09:30:26;18.88;;;7.57;;
52946;SDS011;68773;40.400;17.260;2023-06-24T09:32:52;18.33;;;7.85;;
52946;SDS011;68773;40.400;17.260;2023-06-24T09:35:19;14.93;;;7.30;;
52946;SDS011;68773;40.400;17.260;2023-06-24T09:37:55;19.90;;;7.50;;
52946;SDS011;68773;40.400;17.260;2023-06-24T09:40:24;14.60;;;7.53;;
52946;SDS011;68773;40.400;17.260;2023-06-24T09:45:20;15.70;;;6.60;;
52946;SDS011;68773;40.400;17.260;2023-06-24T09:47:47;14.77;;;7.03;;
52946;SDS011;68773;40.400;17.260;2023-06-24T09:50:13;16.30;;;7.05;;
52946;SDS011;68773;40.400;17.260;2023-06-24T09:52:39;15.68;;;6.63;;
52946;SDS011;68773;40.400;17.260;2023-06-24T09:55:05;17.23;;;6.70;;
52946;SDS011;68773;40.400;17.260;2023-06-24T09:57:33;15.32;;;6.60;;
52946;SDS011;68773;40.400;17.260;2023-06-24T10:00:01;15.57;;;6.75;;
52946;SDS011;68773;40.400;17.260;2023-06-24T10:02:29;13.95;;;6.10;;
52946;SDS011;68773;40.400;17.260;2023-06-24T10:04:56;15.55;;;6.30;;
52946;SDS011;68773;40.400;17.260;2023-06-24T10:07:24;17.63;;;6.80;;
52946;SDS011;68773;40.400;17.260;2023-06-24T10:09:51;15.13;;;5.97;;
52946;SDS011;68773;40.400;17.260;2023-06-24T10:12:17;16.35;;;6.22;;
52946;SDS011;68773;40.400;17.260;2023-06-24T10:14:43;15.43;;;6.28;;
52946;SDS011;68773;40.400;17.260;2023-06-24T10:17:09;15.10;;;6.28;;
52946;SDS011;68773;40.400;17.260;2023-06-24T10:19:40;11.82;;;5.50;;
52946;SDS011;68773;40.400;17.260;2023-06-24T10:22:07;10.98;;;5.78;;
52946;SDS011;68773;40.400;17.260;2023-06-24T10:24:40;19.20;;;7.15;;
52946;SDS011;68773;40.400;17.260;2023-06-24T10:27:17;17.25;;;7.22;;
52946;SDS011;68773;40.400;17.260;2023-06-24T10:29:47;10.50;;;5.50;;
52946;SDS011;68773;40.400;17.260;2023-06-24T10:32:13;10.98;;;5.30;;
52946;SDS011;68773;40.400;17.260;2023-06-24T10:34:43;11.35;;;5.10;;
52946;SDS011;68773;40.400;17.260;2023-06-24T10:44:54;13.38;;;5.20;;
52946;SDS011;68773;40.400;17.260;2023-06-24T10:47:25;15.70;;;5.13;;
52946;SDS011;68773;40.400;17.260;2023-06-24T10:49:52;15.55;;;5.25;;
52946;SDS011;68773;40.400;17.260;2023-06-24T10:52:19;11.23;;;4.97;;
52946;SDS011;68773;40.400;17.260;2023-06-24T10:54:46;10.18;;;4.53;;
52946;SDS011;68773;40.400;17.260;2023-06-24T10:57:12;9.98;;;4.95;;
52946;SDS011;68773;40.400;17.260;2023-06-24T10:59:42;12.02;;;5.03;;
52946;SDS011;68773;40.400;17.260;2023-06-24T11:02:15;11.40;;;4.68;;
52946;SDS011;68773;40.400;17.260;2023-06-24T11:05:03;13.05;;;5.00;;
52946;SDS011;68773;40.400;17.260;2023-06-24T11:07:29;11.65;;;4.57;;
52946;SDS011;68773;40.400;17.260;2023-06-24T11:10:10;14.32;;;4.68;;
52946;SDS011;68773;40.400;17.260;2023-06-24T11:12:38;9.90;;;4.57;;
52946;SDS011;68773;40.400;17.260;2023-06-24T11:15:05;14.40;;;5.35;;
52946;SDS011;68773;40.400;17.260;2023-06-24T11:17:32;7.88;;;4.45;;
52946;SDS011;68773;40.400;17.260;2023-06-24T11:19:59;12.05;;;4.50;;
52946;SDS011;68773;40.400;17.260;2023-06-24T11:22:25;9.80;;;4.72;;
52946;SDS011;68773;40.400;17.260;2023-06-24T11:24:51;18.05;;;5.28;;
52946;SDS011;68773;40.400;17.260;2023-06-24T11:27:36;10.75;;;4.63;;
52946;SDS011;68773;40.400;17.260;2023-06-24T11:30:01;11.23;;;4.95;;
52946;SDS011;68773;40.400;17.260;2023-06-24T11:32:36;12.32;;;5.47;;
52946;SDS011;68773;40.400;17.260;2023-06-24T11:35:06;10.75;;;4.50;;
52946;SDS011;68773;40.400;17.260;2023-06-24T11:37:34;11.23;;;4.85;;
52946;SDS011;68773;40.400;17.260;2023-06-24T11:40:01;8.65;;;4.60;;
52946;SDS011;68773;40.400;17.260;2023-06-24T11:42:31;10.97;;;4.70;;
52946;SDS011;68773;40.400;17.260;2023-06-24T11:45:03;15.32;;;4.70;;
52946;SDS011;68773;40.400;17.260;2023-06-24T11:47:34;13.80;;;5.10;;
52946;SDS011;68773;40.400;17.260;2023-06-24T11:50:02;14.18;;;4.90;;
52946;SDS011;68773;40.400;17.260;2023-06-24T11:55:01;14.35;;;5.78;;
52946;SDS011;68773;40.400;17.260;2023-06-24T12:00:27;7.88;;;4.22;;
52946;SDS011;68773;40.400;17.260;2023-06-24T12:02:58;9.95;;;5.43;;
52946;SDS011;68773;40.400;17.260;2023-06-24T12:05:30;10.50;;;4.93;;
52946;SDS011;68773;40.400;17.260;2023-06-24T12:08:07;12.70;;;5.18;;
52946;SDS011;68773;40.400;17.260;2023-06-24T12:10:35;9.13;;;5.22;;
52946;SDS011;68773;40.400;17.260;2023-06-24T12:13:03;11.52;;;5.20;;
52946;SDS011;68773;40.400;17.260;2023-06-24T12:15:30;14.40;;;4.70;;
52946;SDS011;68773;40.400;17.260;2023-06-24T12:17:57;9.95;;;4.60;;
52946;SDS011;68773;40.400;17.260;2023-06-24T12:20:24;12.77;;;4.93;;
52946;SDS011;68773;40.400;17.260;2023-06-24T12:22:50;11.55;;;4.65;;
52946;SDS011;68773;40.400;17.260;2023-06-24T12:25:16;12.20;;;4.82;;
52946;SDS011;68773;40.400;17.260;2023-06-24T12:27:42;11.38;;;5.05;;
52946;SDS011;68773;40.400;17.260;2023-06-24T12:30:09;11.48;;;5.93;;
52946;SDS011;68773;40.400;17.260;2023-06-24T12:32:36;11.43;;;4.75;;
52946;SDS011;68773;40.400;17.260;2023-06-24T12:35:02;12.48;;;4.70;;
52946;SDS011;68773;40.400;17.260;2023-06-24T12:37:31;9.00;;;4.55;;
52946;SDS011;68773;40.400;17.260;2023-06-24T12:39:58;9.32;;;4.78;;
52946;SDS011;68773;40.400;17.260;2023-06-24T12:42:25;7.15;;;4.28;;
52946;SDS011;68773;40.400;17.260;2023-06-24T12:44:51;9.10;;;4.43;;
52946;SDS011;68773;40.400;17.260;2023-06-24T12:47:17;9.60;;;4.32;;
52946;SDS011;68773;40.400;17.260;2023-06-24T12:49:43;10.75;;;4.35;;
52946;SDS011;68773;40.400;17.260;2023-06-24T12:52:09;12.63;;;4.85;;
52946;SDS011;68773;40.400;17.260;2023-06-24T12:54:35;13.32;;;4.75;;
52946;SDS011;68773;40.400;17.260;2023-06-24T12:57:01;9.77;;;5.10;;
52946;SDS011;68773;40.400;17.260;2023-06-24T12:59:27;13.50;;;4.78;;
52946;SDS011;68773;40.400;17.260;2023-06-24T13:01:53;9.73;;;4.53;;
52946;SDS011;68773;40.400;17.260;2023-06-24T13:04:18;13.00;;;5.13;;
52946;SDS011;68773;40.400;17.260;2023-06-24T13:06:46;12.05;;;4.97;;
52946;SDS011;68773;40.400;17.260;2023-06-24T13:09:12;12.40;;;4.88;;
52946;SDS011;68773;40.400;17.260;2023-06-24T13:11:38;10.18;;;4.88;;
52946;SDS011;68773;40.400;17.260;2023-06-24T13:14:05;9.27;;;4.40;;
52946;SDS011;68773;40.400;17.260;2023-06-24T13:16:31;9.02;;;5.03;;
52946;SDS011;68773;40.400;17.260;2023-06-24T13:18:57;7.47;;;4.28;;
52946;SDS011;68773;40.400;17.260;2023-06-24T13:21:23;8.45;;;4.35;;
52946;SDS011;68773;40.400;17.260;2023-06-24T13:23:49;9.35;;;4.03;;
52946;SDS011;68773;40.400;17.260;2023-06-24T13:26:15;7.88;;;3.65;;
52946;SDS011;68773;40.400;17.260;2023-06-24T13:28:41;8.48;;;3.38;;
52946;SDS011;68773;40.400;17.260;2023-06-24T13:31:07;10.43;;;3.90;;
52946;SDS011;68773;40.400;17.260;2023-06-24T13:33:33;9.13;;;4.20;;
52946;SDS011;68773;40.400;17.260;2023-06-24T13:35:58;10.05;;;4.32;;
52946;SDS011;68773;40.400;17.260;2023-06-24T13:38:24;12.40;;;4.50;;
52946;SDS011;68773;40.400;17.260;2023-06-24T13:40:50;13.25;;;4.80;;
52946;SDS011;68773;40.400;17.260;2023-06-24T13:43:15;9.82;;;4.38;;
52946;SDS011;68773;40.400;17.260;2023-06-24T13:45:41;8.30;;;4.10;;
52946;SDS011;68773;40.400;17.260;2023-06-24T13:48:07;10.48;;;4.53;;
52946;SDS011;68773;40.400;17.260;2023-06-24T13:50:32;14.02;;;4.15;;
52946;SDS011;68773;40.400;17.260;2023-06-24T13:52:59;12.00;;;4.45;;
52946;SDS011;68773;40.400;17.260;2023-06-24T13:55:24;9.60;;;3.72;;
52946;SDS011;68773;40.400;17.260;2023-06-24T13:57:50;10.60;;;3.55;;
52946;SDS011;68773;40.400;17.260;2023-06-24T14:00:16;8.65;;;4.00;;
52946;SDS011;68773;40.400;17.260;2023-06-24T14:02:42;11.40;;;3.13;;
52946;SDS011;68773;40.400;17.260;2023-06-24T14:05:08;6.18;;;3.13;;
52946;SDS011;68773;40.400;17.260;2023-06-24T14:07:34;7.47;;;2.97;;
52946;SDS011;68773;40.400;17.260;2023-06-24T14:10:00;13.55;;;3.85;;
52946;SDS011;68773;40.400;17.260;2023-06-24T14:12:25;7.10;;;3.40;;
52946;SDS011;68773;40.400;17.260;2023-06-24T14:14:51;11.10;;;3.78;;
52946;SDS011;68773;40.400;17.260;2023-06-24T14:17:17;10.20;;;4.07;;
52946;SDS011;68773;40.400;17.260;2023-06-24T14:19:43;8.80;;;3.70;;
52946;SDS011;68773;40.400;17.260;2023-06-24T14:22:08;11.60;;;5.03;;
52946;SDS011;68773;40.400;17.260;2023-06-24T14:24:35;9.80;;;5.15;;
52946;SDS011;68773;40.400;17.260;2023-06-24T14:27:03;17.48;;;5.53;;
52946;SDS011;68773;40.400;17.260;2023-06-24T14:29:30;11.73;;;5.32;;
52946;SDS011;68773;40.400;17.260;2023-06-24T14:31:56;13.75;;;4.78;;
52946;SDS011;68773;40.400;17.260;2023-06-24T14:34:21;10.13;;;4.57;;
52946;SDS011;68773;40.400;17.260;2023-06-24T14:36:47;8.98;;;5.32;;
52946;SDS011;68773;40.400;17.260;2023-06-24T14:39:16;12.35;;;5.25;;
52946;SDS011;68773;40.400;17.260;2023-06-24T14:41:44;15.32;;;5.85;;
52946;SDS011;68773;40.400;17.260;2023-06-24T14:44:10;14.25;;;5.47;;
52946;SDS011;68773;40.400;17.260;2023-06-24T14:46:36;8.50;;;4.70;;
52946;SDS011;68773;40.400;17.260;2023-06-24T14:49:01;14.65;;;5.20;;
52946;SDS011;68773;40.400;17.260;2023-06-24T14:51:27;14.18;;;4.82;;
52946;SDS011;68773;40.400;17.260;2023-06-24T14:53:53;10.93;;;4.68;;
52946;SDS011;68773;40.400;17.260;2023-06-24T14:56:19;11.73;;;4.80;;
52946;SDS011;68773;40.400;17.260;2023-06-24T14:58:44;10.45;;;4.60;;
52946;SDS011;68773;40.400;17.260;2023-06-24T15:01:10;8.50;;;4.80;;
52946;SDS011;68773;40.400;17.260;2023-06-24T15:03:36;8.52;;;4.28;;
52946;SDS011;68773;40.400;17.260;2023-06-24T15:06:01;13.60;;;4.80;;
52946;SDS011;68773;40.400;17.260;2023-06-24T15:08:27;11.35;;;4.97;;
52946;SDS011;68773;40.400;17.260;2023-06-24T15:10:53;14.55;;;5.18;;
52946;SDS011;68773;40.400;17.260;2023-06-24T15:13:19;12.30;;;5.07;;
52946;SDS011;68773;40.400;17.260;2023-06-24T15:15:44;11.75;;;4.75;;